KMMV

Mc Minnville Municipal Airport

Mc Minnville, Oregon, USA
METAR KMMV 161430Z AUTO 00000KT 2 1/2SM BR FEW002 SCT034 00/00 A3037 RMK AO2 T00000000
Observed Flight Rules
Dec-16 @ 14:30 UTC (27 minutes ago) Instrument Flight Rules
Wind Visibility Clouds Conditions
Calm 2 1/2 miles
  • Few at 200' AGL
  • Scattered at 3,400' AGL
  • Mist
Temperatures Readings
Current 0°C / 32°F
Dewpoint 0°C / 32°F
Humidity 100%
Altimeter 30.37" Hg
Pressure 1028 hPa
Elevation 48
METAR KMMV 161430Z AUTO 00000KT 2 1/2SM BR FEW002 SCT034 00/00 A3037 RMK AO2 T00000000
Observed Flight Rules
Dec-16 @ 14:30 UTC
(27 minutes ago)
IFR
Wind Visibility
Calm 2 1/2 miles
Clouds
  • Few at 200' AGL
  • Scattered at 3,400' AGL
Conditions
  • Mist
Temperature Dewpoint
0°C / 32°F 0°C / 32°F
Humidity Altimeter Pressure
100% 30.37" Hg 1028 hPa